Messwerte Guernsey

Temperatur

Temperatur
°C
1524330000 18.00 18.00 20
1524333600 19.00 19.00 20
1524337200 20.00 20.00 17
1524340800 21.00 21.00 16
1524344400 22.00 22.00
1524348000 23.00 23.00
1524351600 0.00 0.00 14
1524355200 1.00 1.00 14
1524358800 2.00 2.00 14
1524362400 3.00 3.00
1524366000 4.00 4.00 13
1524369600 5.00 5.00 12
1524373200 6.00 6.00 12
1524376800 7.00 7.00 12
1524380400 8.00 8.00 13
1524384000 9.00 9.00 14
1524387600 10.00 10.00 13
1524391200 11.00 11.00 11
1524394800 12.00 12.00 12
1524398400 13.00 13.00 11
1524402000 14.00 14.00 12
1524405600 15.00 15.00 12
1524409200 16.00 16.00 11
1524412800 17.00 17.00 11

Aktuellste Messwerte

Wettercharakter
Wetter: stark bewölkt
Temperatur
11 °C
Feuchtigkeit
97 %
Wind
20 km/hWindrichtung: West
Luftdruck
1013 hPa
Messzeit: 22. April 2018, 18.00Datenquelle: METAR

Weitere Messstationen in der Nähe

Messstation Temperatur Entfernung
Jersey 11 °C 37 km
Alderney 11 °C 42 km
La Hague 11.5 °C 58 km
Valognes 13.2 °C 79 km
Gouville-sur-Mer 11.6 °C 80 km
Cherbourg 12.9 °C 86 km
Pommerit-Jaudy 15.5 °C 90 km

Wind

Windrichtung Böen Mittelwind
° km/h km/h
1524330000 18.00 17.00 - 18.00 130° 15
1524333600 19.00 18.00 - 19.00 140° 10
1524337200 20.00 19.00 - 20.00 60° 5
1524340800 21.00 20.00 - 21.00 120° 15
1524344400 22.00 21.00 - 22.00
1524348000 23.00 22.00 - 23.00
1524351600 0.00 23.00 - 0.00 230° 15
1524355200 1.00 0.00 - 1.00 270° 15
1524358800 2.00 1.00 - 2.00 280° 10
1524362400 3.00 2.00 - 3.00
1524366000 4.00 3.00 - 4.00 180° 15
1524369600 5.00 4.00 - 5.00 170° 20
1524373200 6.00 5.00 - 6.00 170° 20
1524376800 7.00 6.00 - 7.00 190° 20
1524380400 8.00 7.00 - 8.00 220° 20
1524384000 9.00 8.00 - 9.00 240° 15
1524387600 10.00 9.00 - 10.00 240° 20
1524391200 11.00 10.00 - 11.00 250° 25
1524394800 12.00 11.00 - 12.00 260° 20
1524398400 13.00 12.00 - 13.00 270° 20
1524402000 14.00 13.00 - 14.00 260° 20
1524405600 15.00 14.00 - 15.00 260° 20
1524409200 16.00 15.00 - 16.00 270° 25
1524412800 17.00 16.00 - 17.00 280° 20

Ihre Wetterstation

Fehlt Ihre Wetterstation auf unserem Portal?

Schreiben Sie an network@meteonews.ch

Klima

Wann ist es am wärmsten? Wann regnet es am wenigsten? Unsere Klimadaten geben Auskunft.